ETHF METAR and TAF | Updated Today

ETHF METAR

Fritzlar Airport

Observation time: 67 min. ago

ETHF 061920Z 03005KT 9999 BKN023 01/M03 Q1039 WHT

Need help? Read our tutorial on how to read METARs or read the parsed version below.

Fritzlar Airport (ETHF) METAR

  • Weather conditions on Mon, 06 Feb 2023 19:20:00 +0000 (67 min. ago):
  • Present conditions: Dry
  • Clouds: Broken sky at 701 meters
  • Visibility: Greater than 10 km
  • Wind: 30 degrees at 5 knots
  • Temperature: 1 celsius
  • Dew point: -3 celsius
  • Pressure: 1039 millibars
  • Remarks: None


Useful to know...

  • Codes: ETHF/FRZ
  • Airport elevation: 1345ft
  • Municipality: Fritzlar
  • Country: Germany
  • Continent: Europe

ETHF TAF

Fritzlar Airport

TAF ETHF 061515Z 0615/0624 36007KT 9999 NSW FEW030 TEMPO 0620/0624 01005KT 8000 NSW BKN015
Observation time: 5:12 hr. ago
Need help? Read our tutorial on how to read TAFs or read the parsed version below.

Parsed version of TAF for Fritzlar Airport (ETHF)

  • From 06 February at 15:00 UTC, to day 06 of the month at 24:00 UTC
  • Clouds: No significant weather are observed; a few at 914 meters
  • Visibility: Greater than 10 km
  • Wind: 360 degrees at 7
  • Expected to arise temporarily, from 06 February at 20:00 UTC, to day 06 of the month at 24:00 UTC
  • Clouds: No significant weather are observed; broken sky at 457 meters
  • Visibility: 8000 meters
  • Wind: 10 degrees at 5